Terminal Aerodrome Forecast
Issued by NWS

Home | Current Version | Previous Version | Text Only | Print | Product List | Glossary On
Versions: 1 2 3 4 5 6 7 8 9 10 11 12 13 14 15 16 17 18
000
FTUS45 KABQ 220500
TAFTCC
TAF
KTCC 220524Z 2206/2306 27012KT P6SM FEW200
     FM221300 31010KT P6SM SCT120 SCT200
     FM221700 VRB05KT P6SM SCT050 BKN150
     FM230100 09011KT P6SM VCSH BKN050=

USA.gov is the U.S. government's official web portal to all federal, state and local government web resources and services.